Time;durP1;ratioP1;P1;durP2;ratioP2;P2;SDS_P1;SDS_P2;PMS_P1;PMS_P2;Temp;Humidity;BMP_temperature;BMP_pressure;BME280_temperature;BME280_humidity;BME280_pressure;Samples;Min_cycle;Max_cycle;Signal;HPM_P1;HPM_P2
2020/12/17 00:03:13;;;;;;;10.55;4.38;;;;;;;2.72;59.12;99140.13;10498809;28;20076;-55
2020/12/17 00:08:18;;;;;;;13.85;5.20;;;;;;;2.65;59.31;99140.59;10501576;28;20527;-56
2020/12/17 00:13:21;;;;;;;13.13;5.57;;;;;;;2.75;58.88;99134.75;10497225;28;20380;-56
2020/12/17 00:18:23;;;;;;;12.07;4.88;;;;;;;2.64;59.55;99121.59;10498520;28;20048;-56
2020/12/17 00:23:25;;;;;;;14.23;5.38;;;;;;;2.63;59.38;99125.13;10497392;28;20135;-54
2020/12/17 00:28:27;;;;;;;12.18;6.53;;;;;;;2.51;59.40;99126.72;10498259;28;20087;-54
2020/12/17 00:33:28;;;;;;;12.15;5.07;;;;;;;2.44;59.85;99119.41;10499242;28;20086;-55
2020/12/17 00:38:31;;;;;;;13.35;5.43;;;;;;;2.43;59.89;99112.53;10497961;28;20164;-55
2020/12/17 00:43:32;;;;;;;10.07;2.60;;;;;;;2.44;60.45;99114.22;10496884;28;20511;-55
2020/12/17 00:48:34;;;;;;;13.38;5.85;;;;;;;2.37;60.61;99118.09;10496058;28;20044;-53
2020/12/17 00:53:37;;;;;;;12.65;5.05;;;;;;;2.26;61.20;99105.81;10496152;28;20481;-55
2020/12/17 00:58:38;;;;;;;11.68;4.57;;;;;;;2.16;61.33;99105.53;10502650;28;20515;-53
2020/12/17 01:03:40;;;;;;;10.00;4.65;;;;;;;2.12;61.72;99098.00;10505436;28;20076;-53
2020/12/17 01:08:42;;;;;;;9.40;3.78;;;;;;;2.08;61.67;99081.81;10503919;28;20076;-54
2020/12/17 01:13:44;;;;;;;11.02;4.50;;;;;;;2.02;62.66;99082.19;10503145;28;20076;-55
2020/12/17 01:18:45;;;;;;;10.23;4.60;;;;;;;2.02;62.39;99083.00;10502558;28;20084;-55
2020/12/17 01:23:48;;;;;;;9.85;4.13;;;;;;;2.03;62.48;99076.06;10503138;28;20408;-55
2020/12/17 01:28:49;;;;;;;9.68;4.50;;;;;;;1.97;62.57;99089.38;10502261;28;20052;-53
2020/12/17 01:33:51;;;;;;;10.07;4.00;;;;;;;2.13;62.38;99087.56;10502330;28;20068;-58
2020/12/17 01:38:54;;;;;;;9.85;4.30;;;;;;;2.10;62.95;99079.97;10513875;28;20067;-54
2020/12/17 01:44:00;;;;;;;6.70;3.17;;;;;;;2.12;62.83;99065.13;10503302;28;20078;-54
2020/12/17 01:49:03;;;;;;;8.95;3.38;;;;;;;2.12;63.07;99069.50;10502068;28;20477;-55
2020/12/17 01:54:05;;;;;;;8.77;3.83;;;;;;;2.05;62.78;99062.06;10502062;28;20446;-54
2020/12/17 01:59:12;;;;;;;7.77;3.43;;;;;;;2.09;62.81;99041.97;10502066;28;20091;-53
2020/12/17 02:04:16;;;;;;;7.85;3.28;;;;;;;2.10;62.80;99055.81;10501515;28;20071;-54
2020/12/17 02:09:19;;;;;;;7.47;3.13;;;;;;;2.18;63.37;99054.38;10500067;28;20499;-55
2020/12/17 02:14:21;;;;;;;8.52;3.63;;;;;;;2.26;62.78;99054.75;10501193;28;20481;-54
2020/12/17 02:19:23;;;;;;;7.13;2.80;;;;;;;2.23;63.21;99060.13;10500377;28;20496;-54
2020/12/17 02:24:26;;;;;;;8.80;3.50;;;;;;;2.24;63.14;99048.81;10500826;28;20144;-53
2020/12/17 02:29:28;;;;;;;9.97;3.57;;;;;;;2.18;63.57;99046.59;10500798;28;20144;-53
2020/12/17 02:34:29;;;;;;;7.72;3.33;;;;;;;2.13;63.22;99043.47;10501148;28;20048;-55
2020/12/17 02:39:33;;;;;;;9.52;3.63;;;;;;;2.30;63.52;99043.25;10505292;28;20067;-55
2020/12/17 02:44:35;;;;;;;;;;;;;;;2.41;63.12;99026.22;10502126;28;20201;-56
2020/12/17 02:49:36;;;;;;;6.63;2.75;;;;;;;2.47;62.81;99028.44;10500288;28;20285;-54
2020/12/17 02:54:39;;;;;;;8.38;3.65;;;;;;;2.51;62.96;99043.69;10500269;28;20064;-54
2020/12/17 02:59:41;;;;;;;7.93;3.72;;;;;;;2.52;62.71;99039.34;10498769;28;20068;-54
2020/12/17 03:04:42;;;;;;;9.00;4.03;;;;;;;2.53;63.17;99033.22;10463546;28;20482;-55
2020/12/17 03:09:45;;;;;;;7.45;3.17;;;;;;;2.58;63.16;99031.16;10462939;28;20447;-53
2020/12/17 03:14:46;;;;;;;10.18;3.72;;;;;;;2.66;63.02;99031.53;10457211;28;20378;-53
2020/12/17 03:19:48;;;;;;;9.13;3.72;;;;;;;2.72;62.50;99027.72;10455983;28;20059;-54
2020/12/17 03:24:51;;;;;;;12.05;4.82;;;;;;;2.75;62.86;99024.91;10457522;28;20044;-55
2020/12/17 03:29:52;;;;;;;7.47;3.63;;;;;;;2.72;63.29;99023.34;10456279;28;20409;-55
2020/12/17 03:34:54;;;;;;;10.25;3.35;;;;;;;2.71;63.34;99018.25;10456616;28;20470;-53
2020/12/17 03:39:57;;;;;;;9.10;4.00;;;;;;;2.71;63.35;99023.44;10495392;28;20045;-54
2020/12/17 03:44:58;;;;;;;9.35;3.88;;;;;;;2.65;63.66;99023.81;10498901;28;20052;-56
2020/12/17 03:50:00;;;;;;;11.77;4.30;;;;;;;2.71;63.16;99020.84;10498373;28;20048;-54
2020/12/17 03:55:03;;;;;;;9.95;3.95;;;;;;;2.76;63.44;99018.78;10497473;28;20054;-54
2020/12/17 04:00:05;;;;;;;9.98;4.25;;;;;;;2.78;63.14;99018.69;10497546;28;20392;-53
2020/12/17 04:05:08;;;;;;;12.85;4.38;;;;;;;2.89;63.35;99018.81;10498499;28;20048;-54
2020/12/17 04:10:10;;;;;;;8.57;3.90;;;;;;;2.93;62.89;99028.09;10497371;28;20470;-53
2020/12/17 04:15:12;;;;;;;10.25;4.50;;;;;;;2.93;63.09;99034.13;10497005;28;20072;-55
2020/12/17 04:20:14;;;;;;;9.38;4.60;;;;;;;2.88;62.96;99030.97;10497054;28;20060;-55
2020/12/17 04:25:16;;;;;;;8.68;3.72;;;;;;;2.95;62.80;99037.44;10497699;28;20045;-55
2020/12/17 04:30:18;;;;;;;10.00;4.28;;;;;;;3.02;62.79;99032.69;10499092;28;20473;-55
2020/12/17 04:35:20;;;;;;;9.50;4.10;;;;;;;3.13;62.49;99030.22;10505437;28;20058;-55
2020/12/17 04:40:23;;;;;;;8.60;3.53;;;;;;;3.14;62.64;99026.72;10512154;28;20055;-56
2020/12/17 04:45:24;;;;;;;10.40;4.47;;;;;;;3.17;62.94;99042.09;10504859;28;20503;-55
2020/12/17 04:50:27;;;;;;;10.13;3.70;;;;;;;3.25;62.61;99038.16;10504757;28;20052;-55
2020/12/17 04:55:31;;;;;;;9.50;4.00;;;;;;;3.27;62.92;99031.09;10504185;28;20056;-53
2020/12/17 05:00:33;;;;;;;10.38;3.85;;;;;;;3.27;62.79;99038.91;10502780;28;20071;-57
2020/12/17 05:05:34;;;;;;;7.35;3.95;;;;;;;3.25;62.88;99041.56;10502953;28;20062;-54
2020/12/17 05:10:37;;;;;;;9.45;4.35;;;;;;;3.33;63.05;99046.28;10504208;28;20048;-54
2020/12/17 05:15:39;;;;;;;11.57;4.78;;;;;;;3.36;62.89;99049.50;10503841;28;20052;-54
2020/12/17 05:20:41;;;;;;;8.50;3.78;;;;;;;3.43;62.80;99050.75;10481309;28;20391;-55
2020/12/17 05:25:44;;;;;;;9.70;4.30;;;;;;;3.55;62.76;99051.72;10461642;28;20136;-56
2020/12/17 05:30:45;;;;;;;8.32;3.97;;;;;;;3.61;62.17;99061.69;10460967;28;20055;-55
2020/12/17 05:35:49;;;;;;;9.40;4.50;;;;;;;3.63;62.23;99057.25;10460534;28;20079;-56
2020/12/17 05:40:52;;;;;;;10.55;4.18;;;;;;;3.61;62.66;99055.69;10506373;28;20053;-54
2020/12/17 05:45:54;;;;;;;8.57;4.72;;;;;;;3.60;63.93;99069.59;10501725;28;20057;-55
2020/12/17 05:50:58;;;;;;;10.80;4.25;;;;;;;3.69;65.13;99076.78;10503537;28;20052;-54
2020/12/17 05:56:05;;;;;;;9.23;4.10;;;;;;;3.75;66.23;99084.16;10502761;28;20477;-54
2020/12/17 06:01:11;;;;;;;11.07;4.82;;;;;;;3.77;66.64;99081.47;10502475;28;20048;-58
2020/12/17 06:06:13;;;;;;;10.63;4.30;;;;;;;3.82;67.41;99082.84;10500016;28;20052;-55
2020/12/17 06:11:15;;;;;;;12.05;4.22;;;;;;;3.79;67.93;99090.84;10503339;28;20101;-60
2020/12/17 06:16:18;;;;;;;12.70;4.20;;;;;;;3.85;68.12;99089.59;10503311;28;20048;-57
2020/12/17 06:21:20;;;;;;;10.48;4.65;;;;;;;3.85;68.40;99095.63;10500391;28;20474;-57
2020/12/17 06:26:23;;;;;;;13.75;6.13;;;;;;;3.89;68.92;99102.28;10497731;28;20427;-57
2020/12/17 06:31:26;;;;;;;10.50;4.47;;;;;;;3.92;68.96;99096.88;10500899;28;20057;-55
2020/12/17 06:36:33;;;;;;;8.15;3.78;;;;;;;4.00;69.66;99092.91;10499330;28;20427;-55
2020/12/17 06:41:36;;;;;;;16.08;6.63;;;;;;;3.96;70.03;99097.50;10499893;28;20059;-54
2020/12/17 06:46:38;;;;;;;12.18;4.85;;;;;;;4.00;70.56;99109.34;10502618;28;20049;-55
2020/12/17 06:52:05;;;;;;;8.77;3.92;;;;;;;4.25;70.46;99107.66;10503397;28;20481;-55
2020/12/17 06:57:09;;;;;;;6.57;3.28;;;;;;;4.29;69.75;99106.53;10502628;28;20060;-56
2020/12/17 07:02:17;;;;;;;10.60;4.40;;;;;;;4.30;69.91;99116.81;10500729;28;20135;-55
2020/12/17 07:07:20;;;;;;;11.65;4.38;;;;;;;4.28;70.08;99107.47;10501451;28;20437;-58
2020/12/17 07:12:44;;;;;;;8.63;3.53;;;;;;;4.38;70.68;99113.72;10501002;28;20131;-55
2020/12/17 07:17:45;;;;;;;11.32;4.63;;;;;;;4.45;70.51;99106.31;10500368;28;20040;-55
2020/12/17 07:22:50;;;;;;;9.18;3.78;;;;;;;4.57;70.05;99113.28;10499655;28;20139;-55
2020/12/17 07:27:53;;;;;;;10.95;3.85;;;;;;;4.64;70.52;99118.88;10500638;28;20083;-55
2020/12/17 07:32:54;;;;;;;9.02;3.45;;;;;;;4.59;69.65;99133.06;10500083;28;20534;-55
2020/12/17 07:37:57;;;;;;;10.70;4.20;;;;;;;4.50;70.70;99131.09;10500604;28;20040;-56
2020/12/17 07:43:12;;;;;;;7.93;3.95;;;;;;;4.66;70.11;99138.66;10500976;28;20056;-59
2020/12/17 07:48:43;;;;;;;7.78;3.80;;;;;;;4.78;70.42;99126.56;10500166;28;20068;-55
2020/12/17 07:53:47;;;;;;;7.93;3.80;;;;;;;4.79;69.77;99126.44;10500399;28;20060;-55
2020/12/17 07:58:51;;;;;;;7.00;3.20;;;;;;;4.89;70.03;99129.22;10502667;28;20049;-57
2020/12/17 08:03:53;;;;;;;7.05;3.45;;;;;;;5.05;69.55;99129.81;10500621;28;20388;-55
2020/12/17 08:08:57;;;;;;;8.52;3.38;;;;;;;5.15;69.42;99124.75;10508137;28;20049;-54
2020/12/17 08:14:01;;;;;;;8.30;3.45;;;;;;;5.23;69.47;99130.25;10507100;28;20063;-57
2020/12/17 08:19:04;;;;;;;9.82;3.60;;;;;;;5.30;69.28;99133.25;10507833;28;20381;-55
2020/12/17 08:24:09;;;;;;;6.13;2.72;;;;;;;5.37;69.50;99133.63;10507222;28;20101;-58
2020/12/17 08:29:12;;;;;;;6.53;2.67;;;;;;;5.36;69.14;99143.22;10507983;28;20048;-56
2020/12/17 08:34:14;;;;;;;6.43;3.28;;;;;;;5.40;69.56;99139.44;10508059;28;20049;-55
2020/12/17 08:39:18;;;;;;;7.10;3.05;;;;;;;5.50;69.41;99150.88;10507004;28;20385;-55
2020/12/17 08:44:24;;;;;;;7.05;3.28;;;;;;;5.50;69.60;99150.88;10506580;28;20049;-56
2020/12/17 08:49:27;;;;;;;6.93;3.20;;;;;;;5.61;69.41;99157.09;10506789;28;20400;-55
2020/12/17 08:54:32;;;;;;;6.82;2.80;;;;;;;5.72;69.46;99154.50;10507095;28;20516;-56
2020/12/17 09:06:04;;;;;;;5.75;2.60;;;;;;;5.77;69.48;99175.88;10506817;28;20066;-57
2020/12/17 09:11:36;;;;;;;6.50;2.70;;;;;;;5.81;69.21;99160.81;10510626;28;20492;-62
2020/12/17 09:16:39;;;;;;;6.40;2.35;;;;;;;5.88;69.76;99173.31;10506299;28;20139;-55
2020/12/17 09:21:57;;;;;;;5.50;2.20;;;;;;;5.97;69.16;99174.41;10506183;28;20508;-54
2020/12/17 09:27:14;;;;;;;6.47;2.40;;;;;;;5.98;69.65;99171.69;10506029;28;20079;-56
2020/12/17 09:32:19;;;;;;;6.75;2.95;;;;;;;6.08;68.97;99171.00;10505202;28;20059;-60
2020/12/17 09:37:22;;;;;;;7.82;2.97;;;;;;;6.07;68.67;99153.69;10504646;28;20139;-56
2020/12/17 09:42:24;;;;;;;13.05;2.95;;;;;;;6.20;69.30;99162.25;10504406;28;20087;-56
2020/12/17 09:47:33;;;;;;;6.70;2.38;;;;;;;6.25;69.29;99169.72;10503371;28;20052;-57
2020/12/17 09:52:35;;;;;;;7.97;2.70;;;;;;;6.12;68.96;99162.81;10506341;28;20084;-56
2020/12/17 09:57:38;;;;;;;7.05;3.15;;;;;;;5.99;69.19;99162.91;10505583;28;20052;-56
2020/12/17 10:02:41;;;;;;;7.38;2.72;;;;;;;6.16;68.99;99163.44;10504129;28;20076;-55
2020/12/17 10:07:46;;;;;;;4.07;2.03;;;;;;;6.16;69.24;99158.22;10504700;28;20481;-56
2020/12/17 10:12:48;;;;;;;10.32;2.30;;;;;;;6.15;69.35;99146.09;10503155;28;20485;-56
2020/12/17 10:17:50;;;;;;;5.22;2.13;;;;;;;6.07;68.63;99153.69;10504320;28;20469;-55
2020/12/17 10:22:53;;;;;;;6.90;2.35;;;;;;;6.07;69.59;99162.34;10504941;28;20070;-55
2020/12/17 10:27:58;;;;;;;7.23;2.20;;;;;;;6.13;69.03;99155.84;10503080;28;20048;-57
2020/12/17 10:33:00;;;;;;;5.82;1.90;;;;;;;6.23;69.27;99155.03;10504121;28;20147;-58
2020/12/17 10:38:02;;;;;;;4.70;1.98;;;;;;;6.31;69.16;99158.81;10503119;28;20140;-55
2020/12/17 10:43:04;;;;;;;7.10;2.13;;;;;;;6.35;69.27;99163.69;10503464;28;20490;-57
2020/12/17 10:48:06;;;;;;;3.78;1.60;;;;;;;6.37;68.29;99172.25;10501519;28;20473;-55
2020/12/17 10:53:08;;;;;;;5.60;2.10;;;;;;;6.30;68.61;99159.78;10503124;28;20056;-55
2020/12/17 10:58:12;;;;;;;4.93;1.70;;;;;;;6.32;68.50;99165.72;10501674;28;20056;-55
2020/12/17 11:03:13;;;;;;;5.20;1.92;;;;;;;6.36;68.22;99160.13;10502467;28;20070;-54
2020/12/17 11:08:16;;;;;;;5.20;1.80;;;;;;;6.21;68.76;99164.72;10501926;28;20125;-56
2020/12/17 11:13:18;;;;;;;4.90;2.28;;;;;;;6.16;68.98;99172.09;10509539;28;20474;-57
2020/12/17 11:18:19;;;;;;;9.85;2.03;;;;;;;6.11;69.17;99191.66;10501402;28;20193;-55
2020/12/17 11:23:22;;;;;;;5.15;2.15;;;;;;;6.25;68.79;99188.84;10501052;28;20048;-53
2020/12/17 11:28:23;;;;;;;6.25;2.15;;;;;;;6.21;68.49;99180.41;10500276;28;20052;-55
2020/12/17 11:33:25;;;;;;;4.20;1.70;;;;;;;6.09;68.55;99203.97;10500038;28;20052;-55
2020/12/17 11:38:28;;;;;;;6.05;1.95;;;;;;;6.08;68.89;99207.53;10500332;28;20040;-56
2020/12/17 11:43:29;;;;;;;5.88;1.85;;;;;;;5.98;68.34;99208.22;10501444;28;20397;-53
2020/12/17 11:48:31;;;;;;;4.65;2.20;;;;;;;5.88;68.78;99217.66;10499988;28;20054;-55
2020/12/17 11:53:34;;;;;;;5.85;2.17;;;;;;;5.84;68.73;99217.97;10499543;28;20063;-57
2020/12/17 11:58:35;;;;;;;5.55;2.00;;;;;;;5.81;69.11;99206.00;10499478;28;20052;-56
2020/12/17 12:03:37;;;;;;;4.90;1.85;;;;;;;5.71;68.77;99215.44;10499828;28;20114;-57
2020/12/17 12:08:40;;;;;;;5.10;1.90;;;;;;;5.66;69.02;99214.94;10499283;28;20113;-55
2020/12/17 12:13:41;;;;;;;6.40;2.25;;;;;;;5.63;68.72;99212.53;10499176;28;20523;-56
2020/12/17 12:18:43;;;;;;;5.93;1.90;;;;;;;5.61;68.68;99211.84;10499208;28;20041;-55
2020/12/17 12:23:46;;;;;;;3.80;1.98;;;;;;;5.50;68.76;99203.00;10496677;28;20105;-54
2020/12/17 12:28:48;;;;;;;4.77;2.23;;;;;;;5.45;68.69;99199.91;10485012;28;20045;-56
2020/12/17 12:33:49;;;;;;;3.88;1.95;;;;;;;5.48;69.33;99206.66;10497683;28;20052;-55
2020/12/17 12:38:52;;;;;;;6.28;2.05;;;;;;;5.50;68.56;99204.78;10497017;28;20051;-55
2020/12/17 12:43:53;;;;;;;4.40;2.10;;;;;;;5.32;68.89;99209.53;10500518;28;20386;-55
2020/12/17 12:48:55;;;;;;;3.67;1.88;;;;;;;5.30;69.09;99214.03;10496517;28;20089;-55
2020/12/17 12:53:57;;;;;;;5.20;2.30;;;;;;;5.24;69.21;99217.09;10502436;28;20049;-56
2020/12/17 12:58:59;;;;;;;7.07;3.03;;;;;;;5.20;69.20;99223.44;10503521;28;20056;-54
2020/12/17 13:04:00;;;;;;;6.55;2.40;;;;;;;5.21;68.96;99222.50;10503550;28;20044;-56
2020/12/17 13:09:05;;;;;;;5.97;2.20;;;;;;;5.21;69.25;99218.13;10502391;28;20045;-55
2020/12/17 13:14:06;;;;;;;4.40;2.25;;;;;;;5.28;69.11;99226.34;10502423;28;20044;-57
2020/12/17 13:19:08;;;;;;;5.30;2.45;;;;;;;5.31;69.31;99234.78;10503447;28;20044;-55
2020/12/17 13:24:10;;;;;;;6.20;2.30;;;;;;;5.31;68.95;99237.38;10501359;28;20071;-55
2020/12/17 13:29:12;;;;;;;6.75;2.60;;;;;;;5.34;68.98;99249.38;10503693;28;20041;-54
2020/12/17 13:34:14;;;;;;;6.50;2.95;;;;;;;5.23;69.25;99236.25;10526038;28;20061;-56
2020/12/17 13:39:17;;;;;;;6.47;2.50;;;;;;;5.23;69.52;99241.47;10462455;28;20117;-55
2020/12/17 13:44:19;;;;;;;7.10;2.30;;;;;;;5.19;69.25;99240.03;10469244;28;20059;-54
2020/12/17 13:49:21;;;;;;;5.25;2.50;;;;;;;5.15;69.45;99251.59;10502234;28;20048;-55
2020/12/17 13:54:23;;;;;;;5.45;2.42;;;;;;;5.22;69.74;99247.63;10501444;28;20052;-54
2020/12/17 13:59:25;;;;;;;6.05;2.50;;;;;;;5.23;69.45;99241.47;10477959;28;20107;-55
2020/12/17 14:04:27;;;;;;;8.05;2.80;;;;;;;5.19;69.71;99247.84;10459395;28;20053;-54
2020/12/17 14:09:29;;;;;;;4.45;2.08;;;;;;;5.25;69.89;99242.19;10469142;28;20055;-56
2020/12/17 14:14:31;;;;;;;6.15;2.58;;;;;;;5.29;69.43;99249.66;10485955;28;20052;-54
2020/12/17 14:19:33;;;;;;;4.82;2.35;;;;;;;5.35;69.30;99256.22;10459241;28;20048;-54
2020/12/17 14:24:35;;;;;;;4.88;2.25;;;;;;;5.43;68.98;99250.50;10483506;28;20139;-54
2020/12/17 14:29:37;;;;;;;6.28;2.30;;;;;;;5.38;68.95;99256.00;10463106;28;20045;-56
2020/12/17 14:34:38;;;;;;;6.82;2.50;;;;;;;5.32;69.14;99253.84;10541948;28;20059;-56
2020/12/17 14:39:41;;;;;;;5.30;1.85;;;;;;;5.41;69.31;99247.16;10533108;28;20389;-55
2020/12/17 14:44:42;;;;;;;5.07;1.90;;;;;;;5.44;68.72;99239.94;10497593;28;20052;-55
2020/12/17 14:49:44;;;;;;;7.45;2.30;;;;;;;5.39;69.30;99249.88;10498507;28;20834;-56
2020/12/17 14:54:47;;;;;;;7.13;2.22;;;;;;;5.46;68.79;99245.88;10469536;28;20118;-55
2020/12/17 14:59:48;;;;;;;6.60;2.45;;;;;;;5.44;69.29;99250.38;10458153;28;20072;-53
2020/12/17 15:04:50;;;;;;;6.97;2.03;;;;;;;5.46;68.79;99251.09;10457614;28;20498;-53
2020/12/17 15:09:52;;;;;;;4.80;1.85;;;;;;;5.39;68.75;99254.25;10459308;28;20076;-54
2020/12/17 15:14:54;;;;;;;5.25;2.03;;;;;;;5.46;69.19;99248.50;10463947;28;20056;-57
2020/12/17 15:19:55;;;;;;;8.68;2.20;;;;;;;5.46;69.07;99256.31;10497750;28;20123;-56
2020/12/17 15:24:58;;;;;;;6.60;3.05;;;;;;;5.49;68.72;99253.50;10499074;28;20044;-55
2020/12/17 15:30:00;;;;;;;5.53;1.92;;;;;;;5.58;69.17;99256.41;10503847;28;20051;-53
2020/12/17 15:35:02;;;;;;;7.35;2.80;;;;;;;5.58;68.67;99261.59;10539643;28;20181;-54
2020/12/17 15:40:05;;;;;;;9.85;2.30;;;;;;;5.59;68.73;99260.66;10543249;28;20043;-53
2020/12/17 15:45:06;;;;;;;7.40;2.83;;;;;;;5.63;68.91;99272.53;10524421;28;20048;-53
2020/12/17 15:50:08;;;;;;;5.10;2.03;;;;;;;5.59;68.75;99277.13;10495041;28;20044;-53
2020/12/17 15:55:11;;;;;;;4.80;2.20;;;;;;;5.56;69.20;99279.13;10497676;28;20055;-56
2020/12/17 16:00:12;;;;;;;7.03;3.25;;;;;;;5.56;69.30;99276.53;10496719;28;20055;-56
2020/12/17 16:05:14;;;;;;;5.72;2.38;;;;;;;5.53;68.89;99286.22;10497428;28;20562;-54
2020/12/17 16:10:16;;;;;;;7.63;1.85;;;;;;;5.62;69.13;99289.13;10498274;28;20481;-54
2020/12/17 16:15:18;;;;;;;4.80;2.15;;;;;;;5.68;68.83;99284.28;10495943;28;20504;-54
2020/12/17 16:20:20;;;;;;;6.55;2.33;;;;;;;5.77;68.86;99288.03;10497499;28;20049;-53
2020/12/17 16:25:22;;;;;;;4.05;1.60;;;;;;;5.69;68.43;99300.75;10499717;28;20056;-53
2020/12/17 16:30:24;;;;;;;6.40;2.13;;;;;;;5.62;69.32;99296.94;10505550;28;20489;-52
2020/12/17 16:35:26;;;;;;;3.95;1.50;;;;;;;5.69;69.11;99303.38;10492198;28;20060;-54
2020/12/17 16:40:30;;;;;;;4.40;2.13;;;;;;;5.69;68.46;99304.19;10480131;28;20052;-55
2020/12/17 16:45:34;;;;;;;4.25;1.38;;;;;;;5.61;68.94;99303.09;10497334;28;20603;-52
2020/12/17 16:50:36;;;;;;;4.90;1.85;;;;;;;5.61;68.37;99287.47;10464640;28;20159;-53
2020/12/17 16:55:38;;;;;;;6.28;2.58;;;;;;;5.56;68.21;99302.59;10465060;28;20398;-52
2020/12/17 17:00:40;;;;;;;10.32;3.20;;;;;;;5.61;69.05;99303.09;10463055;28;20049;-52
2020/12/17 17:05:42;;;;;;;6.68;2.33;;;;;;;5.64;68.35;99302.88;10466172;28;20052;-53
2020/12/17 17:10:44;;;;;;;6.43;2.05;;;;;;;5.59;68.52;99305.81;10462839;28;20049;-52
2020/12/17 17:15:47;;;;;;;5.70;2.25;;;;;;;5.68;68.06;99310.38;10462325;28;20102;-52
2020/12/17 17:20:49;;;;;;;6.03;2.08;;;;;;;5.60;68.28;99322.28;10462052;28;20072;-54
2020/12/17 17:25:53;;;;;;;4.05;1.73;;;;;;;5.47;68.62;99317.09;10492903;28;20063;-52
2020/12/17 17:30:54;;;;;;;5.72;1.90;;;;;;;5.47;68.87;99319.72;10507243;28;20052;-54
2020/12/17 17:35:56;;;;;;;4.30;1.60;;;;;;;5.43;67.98;99337.34;10542931;28;20135;-53
2020/12/17 17:40:59;;;;;;;5.20;1.90;;;;;;;5.28;68.57;99333.19;10501849;28;20048;-57
2020/12/17 17:46:00;;;;;;;4.90;2.00;;;;;;;5.27;68.90;99336.75;10502314;28;20098;-55
2020/12/17 17:51:02;;;;;;;5.55;2.15;;;;;;;5.27;68.83;99326.31;10502206;28;20465;-55
2020/12/17 17:56:08;;;;;;;7.40;3.03;;;;;;;5.21;68.88;99326.75;10503461;28;20366;-55
2020/12/17 18:01:10;;;;;;;6.28;2.10;;;;;;;5.28;68.58;99331.41;10503569;28;20044;-58
2020/12/17 18:06:12;;;;;;;5.75;1.60;;;;;;;5.30;68.17;99339.16;10502609;28;20049;-55
2020/12/17 18:11:14;;;;;;;6.10;1.95;;;;;;;5.27;68.57;99337.59;10502160;28;20090;-53
2020/12/17 18:16:22;;;;;;;3.15;0.93;;;;;;;5.32;69.05;99334.63;10501039;28;20040;-54
2020/12/17 18:21:25;;;;;;;3.08;1.00;;;;;;;5.35;69.19;99325.78;10500908;28;20048;-54
2020/12/17 18:26:28;;;;;;;2.70;0.82;;;;;;;5.31;68.95;99338.19;10500952;28;20599;-55
2020/12/17 18:31:29;;;;;;;3.35;1.02;;;;;;;5.30;68.60;99346.97;10503935;28;20473;-67
2020/12/17 18:36:32;;;;;;;2.65;0.93;;;;;;;5.27;69.30;99347.19;10500201;28;20060;-60
2020/12/17 18:41:35;;;;;;;7.82;2.72;;;;;;;5.37;69.49;99353.41;10492429;28;20045;-53
2020/12/17 18:46:36;;;;;;;14.03;4.20;;;;;;;5.38;68.71;99360.28;10475343;28;20045;-54
2020/12/17 18:51:38;;;;;;;6.85;2.10;;;;;;;5.37;69.21;99356.03;10491637;28;20298;-55
2020/12/17 18:56:44;;;;;;;4.65;0.98;;;;;;;5.42;68.91;99346.13;10483360;28;20396;-56
2020/12/17 19:01:45;;;;;;;3.78;1.27;;;;;;;5.24;68.70;99373.44;10500529;28;20098;-54
2020/12/17 19:06:48;;;;;;;5.18;1.80;;;;;;;5.36;68.56;99369.13;10499623;28;20481;-54
2020/12/17 19:11:50;;;;;;;3.47;1.00;;;;;;;5.38;68.77;99370.72;10499842;28;20048;-55
2020/12/17 19:16:52;;;;;;;2.83;1.00;;;;;;;5.45;68.86;99364.16;10498189;28;20114;-54
2020/12/17 19:21:54;;;;;;;3.72;1.20;;;;;;;5.27;68.23;99374.06;10499927;28;20117;-53
2020/12/17 19:26:56;;;;;;;4.47;1.55;;;;;;;5.29;68.55;99387.81;10497537;28;20496;-55
2020/12/17 19:31:58;;;;;;;3.55;1.00;;;;;;;5.27;68.51;99399.31;10499446;28;20400;-53
2020/12/17 19:37:00;;;;;;;4.18;1.35;;;;;;;5.22;68.77;99401.38;10498596;28;20489;-53
2020/12/17 19:42:06;;;;;;;2.83;0.82;;;;;;;5.24;69.11;99410.75;10500609;28;20162;-56
2020/12/17 19:47:08;;;;;;;3.45;1.10;;;;;;;5.38;68.85;99417.63;10498633;28;20057;-53
2020/12/17 19:52:10;;;;;;;4.00;1.15;;;;;;;5.46;68.23;99410.13;10498537;28;20102;-56
2020/12/17 19:57:12;;;;;;;3.08;1.08;;;;;;;5.49;68.15;99414.31;10497876;28;20052;-54
2020/12/17 20:02:14;;;;;;;3.78;1.35;;;;;;;5.34;68.29;99415.34;10496939;28;20055;-54
2020/12/17 20:07:15;;;;;;;3.92;1.30;;;;;;;5.34;69.09;99421.41;10497738;28;20049;-55
2020/12/17 20:12:22;;;;;;;3.53;1.20;;;;;;;5.38;68.53;99437.66;10498004;28;20049;-53
2020/12/17 20:17:23;;;;;;;5.82;2.40;;;;;;;5.34;68.76;99438.81;10497296;28;20060;-53
2020/12/17 20:22:25;;;;;;;3.38;1.17;;;;;;;5.21;68.68;99437.03;10502267;28;20244;-54
2020/12/17 20:27:27;;;;;;;11.85;6.20;;;;;;;5.13;68.78;99441.06;10497940;28;20405;-55
2020/12/17 20:32:29;;;;;;;4.07;1.00;;;;;;;5.10;69.12;99441.28;10497028;28;20056;-52
2020/12/17 20:37:31;;;;;;;3.03;0.90;;;;;;;5.05;69.07;99439.84;10497241;28;20044;-52
2020/12/17 20:42:35;;;;;;;4.20;1.20;;;;;;;5.15;68.71;99436.63;10497254;28;20048;-57
2020/12/17 20:47:37;;;;;;;4.28;1.30;;;;;;;5.12;68.57;99442.03;10497047;28;20496;-53
2020/12/17 20:52:39;;;;;;;4.00;1.30;;;;;;;5.24;68.70;99451.63;10497473;28;20098;-54
2020/12/17 20:57:43;;;;;;;6.53;1.23;;;;;;;5.17;68.50;99446.00;10497566;28;20440;-54
2020/12/17 21:02:44;;;;;;;3.30;0.98;;;;;;;5.25;68.55;99433.28;10497206;28;20048;-53
2020/12/17 21:07:46;;;;;;;2.85;1.10;;;;;;;5.35;68.55;99448.28;10497046;28;20052;-55
2020/12/17 21:12:49;;;;;;;3.63;1.20;;;;;;;5.30;68.26;99456.44;10497848;28;20065;-55
2020/12/17 21:17:50;;;;;;;3.63;1.48;;;;;;;5.21;68.39;99459.66;10502014;28;20390;-53
2020/12/17 21:22:52;;;;;;;3.35;1.00;;;;;;;5.21;68.39;99462.25;10502106;28;20057;-53
2020/12/17 21:27:54;;;;;;;3.80;1.75;;;;;;;5.22;68.27;99469.13;10504088;28;20051;-56
2020/12/17 21:32:56;;;;;;;3.25;1.23;;;;;;;5.25;68.43;99471.53;10502838;28;20052;-53
2020/12/17 21:37:58;;;;;;;2.72;0.90;;;;;;;5.20;68.01;99471.00;10502521;28;20056;-55
2020/12/17 21:43:01;;;;;;;3.35;1.40;;;;;;;5.24;68.66;99469.88;10502818;28;20040;-52
2020/12/17 21:48:03;;;;;;;2.60;0.82;;;;;;;5.25;68.77;99474.13;10503795;28;20147;-55
2020/12/17 21:53:04;;;;;;;3.00;1.02;;;;;;;5.25;67.93;99484.56;10504253;28;20064;-55
2020/12/17 21:58:07;;;;;;;7.80;3.78;;;;;;;5.29;68.30;99489.44;10501797;28;20485;-54
2020/12/17 22:03:09;;;;;;;3.58;1.00;;;;;;;5.29;68.14;99493.84;10502011;28;20052;-55
2020/12/17 22:08:10;;;;;;;3.10;1.15;;;;;;;5.19;68.34;99488.41;10503247;28;20527;-52
2020/12/17 22:13:13;;;;;;;3.97;1.08;;;;;;;5.18;68.09;99483.31;10502229;28;20393;-54
2020/12/17 22:18:15;;;;;;;3.10;0.97;;;;;;;5.22;68.07;99493.41;10500748;28;20048;-53
2020/12/17 22:23:16;;;;;;;3.20;1.27;;;;;;;5.19;68.18;99490.19;10500463;28;20048;-55
2020/12/17 22:28:19;;;;;;;3.45;1.13;;;;;;;5.16;68.11;99495.59;10500883;28;20062;-54
2020/12/17 22:33:21;;;;;;;2.97;1.10;;;;;;;5.15;67.87;99499.97;10500062;28;20450;-56
2020/12/17 22:38:22;;;;;;;2.97;1.00;;;;;;;5.06;67.97;99506.63;10500121;28;20102;-53
2020/12/17 22:43:25;;;;;;;4.13;1.05;;;;;;;4.98;68.39;99508.88;10500426;28;20045;-54
2020/12/17 22:48:26;;;;;;;3.22;1.13;;;;;;;4.83;68.88;99504.66;10500246;28;20040;-53
2020/12/17 22:53:28;;;;;;;3.75;1.30;;;;;;;4.88;68.68;99507.00;10499537;28;20048;-54
2020/12/17 22:58:30;;;;;;;2.78;0.90;;;;;;;4.82;68.09;99503.84;10499299;28;20045;-54
2020/12/17 23:03:32;;;;;;;3.30;1.10;;;;;;;4.76;68.50;99513.81;10499713;28;20106;-53
2020/12/17 23:08:34;;;;;;;2.85;0.95;;;;;;;4.79;68.22;99518.84;10500617;28;20040;-56
2020/12/17 23:13:37;;;;;;;2.22;0.65;;;;;;;4.80;68.10;99515.28;10505140;28;20155;-55
2020/12/17 23:18:39;;;;;;;3.40;1.38;;;;;;;4.73;68.33;99540.06;10500457;28;20045;-52
2020/12/17 23:23:41;;;;;;;2.40;0.90;;;;;;;4.83;68.45;99533.31;10499658;28;20143;-55
2020/12/17 23:28:44;;;;;;;3.65;1.38;;;;;;;4.78;68.03;99533.63;10500329;28;20052;-52
2020/12/17 23:33:46;;;;;;;3.30;1.20;;;;;;;4.75;67.79;99548.63;10536017;28;20070;-54
2020/12/17 23:38:48;;;;;;;3.25;1.10;;;;;;;4.79;68.50;99550.09;10515067;28;20067;-53
2020/12/17 23:43:51;;;;;;;3.30;1.38;;;;;;;4.88;68.10;99557.31;10498822;28;20458;-53
2020/12/17 23:48:54;;;;;;;4.15;1.50;;;;;;;4.93;68.17;99562.25;10499381;28;20159;-55